Time;durP1;ratioP1;P1;durP2;ratioP2;P2;SDS_P1;SDS_P2;PMS_P1;PMS_P2;Temp;Humidity;BMP_temperature;BMP_pressure;BME280_temperature;BME280_humidity;BME280_pressure;Samples;Min_cycle;Max_cycle;Signal;HPM_P1;HPM_P2
2022/04/07 00:00:55;;;;;;;;;2.00;1.00;;;;;14.13;58.50;99894.56;2450584;28;46470;-89
2022/04/07 00:02:05;;;;;;;;;1.50;0.00;;;;;14.16;58.48;99904.94;2442057;27;45416;-88
2022/04/07 00:03:16;;;;;;;;;2.75;1.00;;;;;14.16;58.30;99894.38;2441212;28;45346;-87
2022/04/07 00:04:26;;;;;;;;;0.00;0.00;;;;;14.16;58.26;99904.09;2448551;28;45231;-88
2022/04/07 00:05:36;;;;;;;;;1.00;1.00;;;;;14.17;58.18;99901.34;2448633;28;47254;-87
2022/04/07 00:06:47;;;;;;;;;0.25;0.25;;;;;14.15;58.20;99892.66;2443298;28;45434;-88
2022/04/07 00:07:58;;;;;;;;;2.00;1.00;;;;;14.15;58.38;99891.81;2444031;28;45423;-88
2022/04/07 00:09:08;;;;;;;;;2.50;1.00;;;;;14.15;58.29;99897.94;2445843;28;45313;-88
2022/04/07 00:10:18;;;;;;;;;2.25;2.00;;;;;14.16;58.58;99898.81;2450094;27;45511;-88
2022/04/07 00:11:29;;;;;;;;;1.00;1.00;;;;;14.18;58.77;99899.56;2441428;28;44753;-87
2022/04/07 00:12:42;;;;;;;;;2.75;0.75;;;;;14.16;58.52;99882.97;2441095;28;46426;-88
2022/04/07 00:13:52;;;;;;;;;2.25;0.75;;;;;14.16;58.58;99886.44;2445399;28;45459;-88
2022/04/07 00:15:03;;;;;;;;;2.00;0.75;;;;;14.18;58.45;99883.69;2443267;28;46103;-88
2022/04/07 00:16:14;;;;;;;;;1.00;1.00;;;;;14.18;58.42;99865.19;2452624;27;45363;-86
2022/04/07 00:17:24;;;;;;;;;2.75;1.00;;;;;14.18;58.29;99871.34;2453545;27;45205;-85
2022/04/07 00:18:34;;;;;;;;;3.25;1.00;;;;;14.18;58.44;99874.00;2441219;28;45474;-85
2022/04/07 00:19:45;;;;;;;;;1.00;1.00;;;;;14.19;58.37;99880.13;2440923;28;45338;-85
2022/04/07 00:20:56;;;;;;;;;0.00;0.00;;;;;14.18;58.44;99876.63;2441226;28;45444;-86
2022/04/07 00:22:07;;;;;;;;;4.00;2.00;;;;;14.20;58.38;99871.25;2441089;28;45370;-85
2022/04/07 00:23:17;;;;;;;;;1.00;0.00;;;;;14.17;58.28;99869.63;2451027;27;45380;-85
2022/04/07 00:24:28;;;;;;;;;1.00;1.00;;;;;14.18;58.27;99870.50;2443920;27;45437;-86
2022/04/07 00:25:38;;;;;;;;;1.75;1.75;;;;;14.16;58.58;99873.25;2441208;28;45244;-86
2022/04/07 00:26:48;;;;;;;;;1.50;1.50;;;;;14.20;58.28;99873.06;2441373;28;45311;-86
2022/04/07 00:27:59;;;;;;;;;2.00;0.75;;;;;14.20;58.13;99867.78;2441210;28;45334;-86
2022/04/07 00:29:09;;;;;;;;;1.75;1.75;;;;;14.18;58.27;99865.19;2441232;28;45280;-86
2022/04/07 00:30:21;;;;;;;;;1.50;1.00;;;;;14.18;58.41;99871.34;2441172;28;44714;-85
2022/04/07 00:31:39;;;;;;;;;1.25;1.00;;;;;14.18;58.29;99866.06;2441012;28;45381;-85
2022/04/07 00:32:50;;;;;;;;;0.50;0.25;;;;;14.18;58.25;99860.78;2441233;28;45504;-86
2022/04/07 00:34:00;;;;;;;;;1.75;1.75;;;;;14.16;58.24;99854.75;2445776;28;45587;-86
2022/04/07 00:35:11;;;;;;;;;2.75;1.00;;;;;14.15;58.46;99842.47;2440972;28;45203;-84
2022/04/07 00:36:21;;;;;;;;;1.00;1.00;;;;;14.17;58.47;99842.38;2441999;28;47985;-85
2022/04/07 00:37:31;;;;;;;;;2.50;2.00;;;;;14.16;58.55;99846.81;2450482;27;45254;-85
2022/04/07 00:38:42;;;;;;;;;3.00;2.00;;;;;14.17;58.18;99840.56;2450859;27;46273;-85
2022/04/07 00:39:52;;;;;;;;;2.00;2.00;;;;;14.18;58.38;99844.91;2441580;27;45223;-88
2022/04/07 00:41:03;;;;;;;;;3.00;1.00;;;;;14.19;58.29;99851.06;2440991;28;45236;-89
2022/04/07 00:42:13;;;;;;;;;0.00;0.00;;;;;14.18;58.07;99850.19;2440640;28;45238;-86
2022/04/07 00:43:32;;;;;;;;;2.25;2.00;;;;;14.21;58.29;99864.16;2440586;28;45236;-86
2022/04/07 00:44:43;;;;;;;;;1.00;1.00;;;;;14.16;58.04;99840.66;2441303;28;45211;-91
2022/04/07 00:45:53;;;;;;;;;1.00;1.00;;;;;14.17;58.22;99837.09;2441011;28;45539;-90
2022/04/07 00:47:04;;;;;;;;;6.00;1.00;;;;;14.16;58.21;99825.66;2441245;28;45201;-91
2022/04/07 00:48:14;;;;;;;;;2.25;1.00;;;;;14.15;58.14;99820.47;2440383;28;45911;-91
2022/04/07 00:49:24;;;;;;;;;0.25;0.25;;;;;14.15;57.96;99823.97;2450041;28;45413;-92
2022/04/07 00:50:35;;;;;;;;;2.00;0.75;;;;;14.17;57.89;99821.25;2443887;28;46280;-93
2022/04/07 00:51:45;;;;;;;;;1.00;1.00;;;;;14.17;58.31;99835.28;2436187;28;45367;-93
2022/04/07 00:52:58;;;;;;;;;0.50;0.50;;;;;14.18;58.00;99820.28;2450494;28;45271;-94
2022/04/07 00:54:10;;;;;;;;;2.00;2.00;;;;;14.17;58.44;99811.50;2445931;27;45394;-95
2022/04/07 00:55:21;;;;;;;;;2.00;1.25;;;;;14.18;58.05;99812.34;2440677;28;47420;-94
2022/04/07 00:56:35;;;;;;;;;2.00;1.00;;;;;14.17;58.16;99813.31;2447671;28;45251;-91
2022/04/07 00:57:46;;;;;;;;;1.50;1.00;;;;;14.17;58.24;99813.31;2450167;28;45443;-90
2022/04/07 00:58:57;;;;;;;;;1.00;1.00;;;;;14.15;57.69;99794.91;2450992;27;45460;-88
2022/04/07 01:00:09;;;;;;;;;0.00;0.00;;;;;14.16;57.77;99804.53;2450802;28;45516;-90
2022/04/07 01:01:22;;;;;;;;;1.75;0.50;;;;;14.17;58.15;99800.94;2455145;27;45218;-91
2022/04/07 01:02:33;;;;;;;;;1.00;1.00;;;;;14.18;57.92;99802.63;2449261;28;45636;-95
2022/04/07 01:03:43;;;;;;;;;2.25;1.25;;;;;14.19;57.79;99798.19;2443426;28;44595;-93
2022/04/07 01:04:54;;;;;;;;;1.50;0.25;;;;;14.20;57.81;99799.88;2435392;28;47031;-94
2022/04/07 01:06:04;;;;;;;;;2.00;0.00;;;;;14.20;57.93;99781.38;2442487;28;45193;-93
2022/04/07 01:07:15;;;;;;;;;1.00;1.00;;;;;14.18;57.66;99792.06;2442202;28;47122;-90
2022/04/07 01:08:25;;;;;;;;;1.00;1.00;;;;;14.20;57.74;99793.78;2445019;28;44790;-94
2022/04/07 01:09:37;;;;;;;;;1.00;0.50;;;;;14.17;58.02;99784.25;2444785;28;48340;-92
2022/04/07 01:10:47;;;;;;;;;0.75;0.75;;;;;14.18;57.79;99778.00;2439947;28;45395;-92
2022/04/07 01:11:58;;;;;;;;;3.50;1.00;;;;;14.17;57.68;99774.50;2443699;28;46148;-92
2022/04/07 01:13:08;;;;;;;;;3.00;0.25;;;;;14.19;57.96;99777.06;2451778;27;45372;-93
2022/04/07 01:14:19;;;;;;;;;3.75;0.75;;;;;14.20;58.01;99776.09;2444046;28;47384;-92
2022/04/07 01:15:29;;;;;;;;;1.00;1.00;;;;;14.18;57.69;99776.22;2454605;27;45554;-93
2022/04/07 01:16:40;;;;;;;;;4.25;0.00;;;;;14.17;58.09;99763.94;2464471;27;48000;-95
2022/04/07 01:17:51;;;;;;;;;0.00;0.00;;;;;14.18;57.70;99765.63;2450023;27;45176;-94
2022/04/07 01:19:01;;;;;;;;;1.00;1.00;;;;;14.19;57.89;99755.91;2454578;27;46906;-95
2022/04/07 01:20:12;;;;;;;;;1.00;0.00;;;;;14.18;57.81;99757.72;2460170;27;45162;-94
2022/04/07 01:21:23;;;;;;;;;2.50;1.00;;;;;14.18;57.70;99760.34;2452364;27;47208;-93
2022/04/07 01:22:36;;;;;;;;;1.50;0.00;;;;;14.19;57.74;99758.56;2450431;28;44681;-94
2022/04/07 01:24:02;;;;;;;;;1.75;0.50;;;;;14.21;58.10;99763.75;2445140;28;47242;-94
2022/04/07 01:25:13;;;;;;;;;2.00;1.00;;;;;14.20;58.03;99747.03;2451963;28;45184;-93
2022/04/07 01:26:25;;;;;;;;;1.00;0.50;;;;;14.20;58.00;99752.31;2454808;27;47412;-94
2022/04/07 01:27:36;;;;;;;;;0.50;0.00;;;;;14.20;57.96;99751.50;2452107;28;45192;-94
2022/04/07 01:28:48;;;;;;;;;0.50;0.50;;;;;14.17;57.91;99750.72;2442751;28;45658;-93
2022/04/07 01:30:10;;;;;;;;;0.25;0.25;;;;;14.17;57.97;99748.06;2461152;27;44699;-94
2022/04/07 01:31:21;;;;;;;;;1.00;0.00;;;;;14.20;57.95;99759.41;2449497;27;48424;-94
2022/04/07 01:32:45;;;;;;;;;0.00;0.00;;;;;14.17;58.11;99742.78;2448970;27;45224;-94
2022/04/07 01:33:58;;;;;;;;;0.00;0.00;;;;;14.18;58.21;99749.78;2455103;27;47321;-94
2022/04/07 01:35:09;;;;;;;;;0.50;0.50;;;;;14.16;58.13;99754.31;2454623;27;44844;-94
2022/04/07 01:36:19;;;;;;;;;2.50;1.00;;;;;14.17;58.06;99748.06;2461617;27;48079;-94
2022/04/07 01:37:30;;;;;;;;;2.25;1.00;;;;;14.15;58.17;99757.91;2445417;28;45185;-90
2022/04/07 01:38:41;;;;;;;;;0.25;0.25;;;;;14.15;58.49;99755.25;2443991;28;45588;-91
2022/04/07 01:39:53;;;;;;;;;0.00;0.00;;;;;14.14;58.26;99758.88;2443574;28;45439;-90
2022/04/07 01:41:04;;;;;;;;;0.75;0.50;;;;;14.14;58.42;99752.72;2442306;28;46455;-91
2022/04/07 01:42:14;;;;;;;;;0.00;0.00;;;;;14.14;58.21;99745.66;2441870;28;44819;-91
2022/04/07 01:43:25;;;;;;;;;0.75;0.75;;;;;14.14;58.23;99743.00;2441621;28;45492;-90
2022/04/07 01:44:40;;;;;;;;;0.50;0.25;;;;;14.13;58.43;99728.09;2442272;28;45362;-91
2022/04/07 01:45:51;;;;;;;;;1.00;1.00;;;;;14.13;58.29;99719.31;2442023;28;45579;-90
2022/04/07 01:47:03;;;;;;;;;1.00;1.00;;;;;14.12;58.34;99731.69;2444655;28;45235;-91
2022/04/07 01:48:16;;;;;;;;;1.00;1.00;;;;;14.12;58.34;99734.34;2452029;28;46625;-90
2022/04/07 01:49:27;;;;;;;;;5.75;0.50;;;;;14.16;58.31;99737.63;2443139;28;45300;-92
2022/04/07 01:50:39;;;;;;;;;2.75;0.00;;;;;14.13;58.44;99732.53;2441708;28;46322;-89
2022/04/07 01:51:50;;;;;;;;;0.75;0.75;;;;;14.12;58.58;99734.34;2442129;28;45295;-88
2022/04/07 01:53:01;;;;;;;;;1.75;1.50;;;;;14.10;58.71;99741.50;2441751;28;47241;-89
2022/04/07 01:54:14;;;;;;;;;1.00;1.00;;;;;14.12;58.89;99739.63;2444455;28;44720;-95
2022/04/07 01:55:26;;;;;;;;;1.00;0.00;;;;;14.12;59.33;99744.91;2445770;28;46591;-96
2022/04/07 01:56:40;;;;;;;;;1.25;1.00;;;;;14.11;59.29;99734.41;2448926;27;45172;-94
2022/04/07 01:57:51;;;;;;;;;3.00;2.00;;;;;14.12;59.98;99736.13;2446266;27;47513;-94
2022/04/07 01:59:02;;;;;;;;;4.75;1.00;;;;;14.11;59.83;99735.28;2451332;28;44679;-92
2022/04/07 02:00:13;;;;;;;;;3.75;2.00;;;;;14.11;60.04;99735.28;2442069;28;47143;-93
2022/04/07 02:01:23;;;;;;;;;4.00;2.00;;;;;14.07;60.35;99725.84;2440953;28;44798;-90
2022/04/07 02:02:34;;;;;;;;;1.00;1.00;;;;;14.10;60.36;99725.63;2451464;28;46271;-91
2022/04/07 02:03:45;;;;;;;;;3.25;1.25;;;;;14.09;60.81;99723.09;2451172;28;45212;-86
2022/04/07 02:04:57;;;;;;;;;1.50;1.00;;;;;14.04;60.21;99715.47;2451228;28;45505;-87
2022/04/07 02:06:13;;;;;;;;;0.75;0.00;;;;;14.05;60.21;99727.75;2452046;27;45350;-87
2022/04/07 02:07:31;;;;;;;;;3.50;1.25;;;;;14.05;60.71;99725.94;2448690;27;45197;-87
2022/04/07 02:08:41;;;;;;;;;1.00;1.00;;;;;14.04;60.34;99713.69;2441570;28;45254;-85
2022/04/07 02:09:52;;;;;;;;;1.00;1.00;;;;;14.06;60.48;99721.50;2441474;28;45576;-85
2022/04/07 02:11:02;;;;;;;;;3.00;1.25;;;;;14.05;60.63;99717.19;2444642;28;45247;-92
2022/04/07 02:12:13;;;;;;;;;2.25;1.25;;;;;14.03;60.78;99713.75;2441374;28;45239;-91
2022/04/07 02:13:24;;;;;;;;;1.00;0.75;;;;;14.04;60.36;99716.31;2447755;28;44747;-86
2022/04/07 02:14:35;;;;;;;;;3.50;1.00;;;;;14.02;60.93;99717.38;2443072;27;45318;-85
2022/04/07 02:15:45;;;;;;;;;1.00;1.00;;;;;14.03;60.74;99716.41;2443601;27;44756;-85
2022/04/07 02:16:56;;;;;;;;;1.00;1.00;;;;;14.00;60.48;99708.69;2458153;27;45268;-86
2022/04/07 02:18:06;;;;;;;;;2.00;1.00;;;;;13.97;60.47;99707.09;2442977;28;45431;-87
2022/04/07 02:19:16;;;;;;;;;0.00;0.00;;;;;13.97;60.43;99698.31;2441195;28;45452;-87
2022/04/07 02:20:27;;;;;;;;;2.00;2.00;;;;;13.97;60.73;99695.69;2442041;28;45329;-86
2022/04/07 02:21:37;;;;;;;;;1.75;1.50;;;;;13.98;60.69;99694.72;2442982;28;47136;-87
2022/04/07 02:22:48;;;;;;;;;2.00;1.50;;;;;13.96;60.84;99689.53;2451479;28;45322;-87
2022/04/07 02:23:59;;;;;;;;;1.00;1.00;;;;;13.95;61.16;99696.63;2443714;27;45452;-86
2022/04/07 02:25:10;;;;;;;;;1.00;1.00;;;;;13.95;60.88;99698.44;2442125;28;44614;-87
2022/04/07 02:26:20;;;;;;;;;1.25;1.00;;;;;13.94;61.08;99697.56;2447119;28;46471;-86
2022/04/07 02:27:38;;;;;;;;;3.50;1.75;;;;;13.95;60.99;99696.63;2441704;28;45299;-86
2022/04/07 02:28:48;;;;;;;;;1.00;1.00;;;;;13.93;60.84;99687.94;2449850;28;46600;-85
2022/04/07 02:29:59;;;;;;;;;4.50;1.25;;;;;13.90;60.90;99685.50;2451063;28;44726;-86
2022/04/07 02:31:11;;;;;;;;;1.50;1.50;;;;;13.90;60.93;99680.22;2449595;28;45398;-87
2022/04/07 02:32:21;;;;;;;;;1.50;1.00;;;;;13.92;60.85;99686.28;2450218;28;44790;-91
2022/04/07 02:33:34;;;;;;;;;3.50;2.00;;;;;13.93;61.30;99680.03;2452896;27;47259;-90
2022/04/07 02:34:44;;;;;;;;;4.00;2.00;;;;;13.94;61.36;99678.22;2445135;28;45231;-95
2022/04/07 02:35:55;;;;;;;;;0.75;0.75;;;;;13.94;61.18;99671.16;2436944;28;47347;-95
2022/04/07 02:37:05;;;;;;;;;3.00;1.00;;;;;13.92;61.38;99670.41;2454378;27;45310;-94
2022/04/07 02:38:15;;;;;;;;;3.25;1.75;;;;;13.93;61.80;99658.88;2451552;28;48506;-94
2022/04/07 02:39:26;;;;;;;;;3.75;2.00;;;;;13.95;61.68;99658.81;2445060;28;44693;-96
2022/04/07 02:40:36;;;;;;;;;2.50;2.00;;;;;13.94;61.34;99651.81;2442876;28;47004;-94
2022/04/07 02:41:47;;;;;;;;;2.00;2.00;;;;;13.94;61.70;99649.19;2444389;28;44770;-95
2022/04/07 02:42:57;;;;;;;;;2.00;1.50;;;;;13.91;61.81;99642.28;2441670;28;48392;-91
2022/04/07 02:44:08;;;;;;;;;3.00;1.50;;;;;13.93;61.98;99647.47;2448013;28;45410;-92
2022/04/07 02:45:18;;;;;;;;;2.75;1.75;;;;;13.91;62.08;99637.00;2441430;28;46996;-92
2022/04/07 02:46:29;;;;;;;;;3.00;1.00;;;;;13.92;62.12;99646.66;2443836;28;44894;-92
2022/04/07 02:47:39;;;;;;;;;3.00;1.00;;;;;13.93;62.21;99634.25;2443838;28;47921;-92
2022/04/07 02:48:50;;;;;;;;;3.00;2.00;;;;;13.92;62.10;99627.31;2450221;28;45433;-92
2022/04/07 02:50:01;;;;;;;;;6.25;3.00;;;;;13.92;62.39;99628.16;2443595;28;47218;-88
2022/04/07 02:51:11;;;;;;;;;0.50;0.50;;;;;13.92;62.49;99622.00;2434201;28;45181;-84
2022/04/07 02:52:21;;;;;;;;;2.00;1.25;;;;;13.93;62.37;99623.69;2443852;28;45414;-83
2022/04/07 02:53:32;;;;;;;;;2.00;2.00;;;;;13.92;62.52;99617.59;2442029;28;45173;-84
2022/04/07 02:54:42;;;;;;;;;4.00;2.00;;;;;13.93;62.08;99618.41;2441593;28;46272;-84
2022/04/07 02:55:52;;;;;;;;;3.25;1.25;;;;;13.92;62.57;99608.81;2441122;28;45267;-84
2022/04/07 02:57:04;;;;;;;;;1.75;1.00;;;;;13.95;62.22;99611.25;2441301;28;46252;-84
2022/04/07 02:58:14;;;;;;;;;1.25;1.25;;;;;13.93;62.19;99605.19;2441765;28;45168;-84
2022/04/07 02:59:25;;;;;;;;;4.50;1.75;;;;;13.93;62.51;99606.06;2441657;28;46585;-84
2022/04/07 03:00:35;;;;;;;;;1.75;1.00;;;;;13.94;62.76;99606.91;2442164;28;45161;-84
2022/04/07 03:01:46;;;;;;;;;3.25;1.00;;;;;13.93;62.58;99606.06;2440912;28;48654;-84
2022/04/07 03:02:56;;;;;;;;;2.00;1.00;;;;;13.91;62.90;99594.75;2443764;28;45267;-84
2022/04/07 03:04:06;;;;;;;;;1.00;1.00;;;;;13.92;62.45;99593.81;2444307;28;46281;-85
2022/04/07 03:05:17;;;;;;;;;0.75;0.75;;;;;13.93;63.04;99592.84;2451586;27;45235;-85
2022/04/07 03:06:29;;;;;;;;;1.25;1.25;;;;;13.92;62.98;99587.69;2451403;27;45294;-84
2022/04/07 03:07:39;;;;;;;;;3.00;1.25;;;;;13.93;63.08;99586.72;2450789;28;45333;-84
2022/04/07 03:08:50;;;;;;;;;2.75;2.00;;;;;13.93;63.00;99587.56;2449072;28;45508;-84
2022/04/07 03:10:01;;;;;;;;;4.00;2.25;;;;;13.93;62.92;99582.28;2448282;27;45270;-85
2022/04/07 03:11:13;;;;;;;;;3.00;1.75;;;;;13.92;62.61;99567.41;2449751;28;45264;-84
2022/04/07 03:12:23;;;;;;;;;4.00;3.00;;;;;13.92;62.79;99572.69;2449226;27;44649;-86
2022/04/07 03:13:36;;;;;;;;;1.50;1.50;;;;;13.93;62.92;99560.31;2447733;27;46421;-86
2022/04/07 03:14:46;;;;;;;;;4.50;1.00;;;;;13.93;62.79;99566.44;2440995;28;44739;-85
2022/04/07 03:15:57;;;;;;;;;1.00;1.00;;;;;13.93;62.40;99577.00;2445778;27;46458;-85
2022/04/07 03:17:07;;;;;;;;;2.00;2.00;;;;;13.94;62.68;99556.72;2449292;27;45226;-86
2022/04/07 03:18:18;;;;;;;;;2.50;1.50;;;;;13.90;62.80;99550.78;2441720;28;45398;-85
2022/04/07 03:19:28;;;;;;;;;1.00;0.75;;;;;13.91;62.98;99551.63;2441610;28;45318;-86
2022/04/07 03:20:38;;;;;;;;;2.00;2.00;;;;;13.94;62.78;99559.38;2441318;28;45535;-87
2022/04/07 03:21:49;;;;;;;;;4.00;1.00;;;;;13.92;62.89;99554.19;2441606;28;45310;-87
2022/04/07 03:22:59;;;;;;;;;2.00;2.00;;;;;13.93;62.72;99542.66;2449938;28;45267;-88
2022/04/07 03:24:10;;;;;;;;;0.25;0.25;;;;;13.94;63.31;99541.72;2441722;28;45315;-87
2022/04/07 03:25:21;;;;;;;;;1.00;1.00;;;;;13.94;63.30;99541.72;2441459;28;46525;-87
2022/04/07 03:26:31;;;;;;;;;4.00;2.00;;;;;13.96;63.25;99541.63;2441609;28;45218;-88
2022/04/07 03:27:41;;;;;;;;;1.00;1.00;;;;;13.99;63.04;99548.50;2441664;28;45399;-85
2022/04/07 03:28:52;;;;;;;;;3.50;2.00;;;;;13.94;63.13;99520.59;2441639;28;45224;-85
2022/04/07 03:30:03;;;;;;;;;2.00;2.00;;;;;13.97;63.10;99531.91;2441699;28;46203;-85
2022/04/07 03:31:14;;;;;;;;;1.00;1.00;;;;;13.95;63.48;99516.97;2441757;28;44602;-86
2022/04/07 03:32:24;;;;;;;;;4.00;1.25;;;;;13.93;63.05;99513.59;2445790;28;45548;-86
2022/04/07 03:33:35;;;;;;;;;3.25;2.00;;;;;13.93;63.14;99508.31;2445534;27;44613;-87
2022/04/07 03:34:46;;;;;;;;;5.00;2.00;;;;;13.94;63.34;99503.91;2441282;28;46236;-86
2022/04/07 03:35:58;;;;;;;;;3.50;1.25;;;;;13.95;63.33;99500.31;2440828;28;45221;-87
2022/04/07 03:37:08;;;;;;;;;2.75;2.75;;;;;13.96;63.66;99507.28;2440843;28;46249;-87
2022/04/07 03:38:19;;;;;;;;;5.25;2.00;;;;;13.94;63.21;99493.31;2441475;28;45375;-86
2022/04/07 03:39:30;;;;;;;;;1.50;1.50;;;;;13.98;63.34;99486.88;2441339;28;45681;-85
2022/04/07 03:40:40;;;;;;;;;2.75;2.00;;;;;13.96;63.36;99486.13;2441678;28;44628;-85
2022/04/07 03:41:51;;;;;;;;;2.25;2.00;;;;;13.98;63.52;99486.88;2441313;28;45218;-86
2022/04/07 03:43:02;;;;;;;;;2.75;2.75;;;;;13.97;63.44;99487.84;2447873;28;45370;-85
2022/04/07 03:44:13;;;;;;;;;3.25;1.75;;;;;13.96;63.54;99488.78;2441418;28;46433;-86
2022/04/07 03:45:23;;;;;;;;;3.00;1.00;;;;;13.98;63.60;99468.38;2446335;28;45383;-88
2022/04/07 03:46:34;;;;;;;;;3.25;2.00;;;;;13.97;63.22;99465.88;2449742;28;48257;-86
2022/04/07 03:47:45;;;;;;;;;3.25;2.00;;;;;13.97;63.44;99466.72;2442278;28;45495;-86
2022/04/07 03:48:55;;;;;;;;;4.75;3.25;;;;;13.97;63.46;99452.66;2441130;28;45345;-86
2022/04/07 03:50:06;;;;;;;;;2.75;2.75;;;;;13.98;63.34;99460.47;2449617;28;45213;-86
2022/04/07 03:51:19;;;;;;;;;5.00;4.00;;;;;13.97;63.42;99455.28;2450913;27;47571;-86
2022/04/07 03:52:30;;;;;;;;;11.25;10.25;;;;;13.97;63.56;99442.09;2447446;28;45370;-84
2022/04/07 03:53:40;;;;;;;;;7.25;6.50;;;;;13.99;63.82;99446.31;2441074;28;45316;-83
2022/04/07 03:54:50;;;;;;;;;16.25;16.00;;;;;13.99;63.65;99448.09;2450247;28;44800;-83
2022/04/07 03:56:03;;;;;;;;;17.75;9.75;;;;;13.99;63.84;99434.91;2444215;27;45216;-83
2022/04/07 03:57:13;;;;;;;;;8.25;7.50;;;;;14.01;63.93;99430.34;2444055;28;45468;-83
2022/04/07 03:58:26;;;;;;;;;9.25;8.00;;;;;13.99;63.73;99422.53;2443088;28;47030;-83
2022/04/07 03:59:38;;;;;;;;;7.50;6.00;;;;;14.02;63.43;99424.13;2443637;28;45273;-83
2022/04/07 04:00:48;;;;;;;;;2.50;1.75;;;;;14.01;63.42;99417.16;2450555;28;46097;-83
2022/04/07 04:01:58;;;;;;;;;5.75;4.00;;;;;14.00;63.54;99418.13;2450953;27;44753;-82
2022/04/07 04:03:09;;;;;;;;;4.25;3.50;;;;;14.00;63.34;99418.13;2440812;28;47223;-82
2022/04/07 04:04:22;;;;;;;;;4.00;4.00;;;;;14.01;63.57;99409.22;2440475;28;45355;-85
2022/04/07 04:05:32;;;;;;;;;3.75;2.75;;;;;14.02;63.19;99411.78;2441145;28;45342;-84
2022/04/07 04:06:42;;;;;;;;;3.00;1.25;;;;;14.02;63.80;99410.91;2441328;28;45257;-85
2022/04/07 04:07:53;;;;;;;;;3.25;2.00;;;;;14.00;63.81;99410.19;2440522;28;47290;-84
2022/04/07 04:09:03;;;;;;;;;3.00;2.00;;;;;13.99;63.70;99385.56;2440865;28;44605;-85
2022/04/07 04:10:14;;;;;;;;;1.25;1.25;;;;;14.04;63.76;99403.72;2441626;28;46506;-83
2022/04/07 04:11:24;;;;;;;;;1.75;1.75;;;;;14.02;63.96;99400.34;2451156;27;45351;-83
2022/04/07 04:12:35;;;;;;;;;3.50;2.25;;;;;14.05;63.69;99402.78;2449353;28;47216;-83
2022/04/07 04:13:46;;;;;;;;;3.25;2.00;;;;;14.03;63.65;99400.25;2444759;28;46436;-83
2022/04/07 04:14:56;;;;;;;;;1.75;1.75;;;;;14.03;63.78;99394.09;2442921;28;45824;-84
2022/04/07 04:16:08;;;;;;;;;5.00;2.00;;;;;14.04;64.20;99398.44;2454826;27;45374;-84
2022/04/07 04:17:18;;;;;;;;;4.00;1.75;;;;;14.05;63.83;99392.22;2444280;27;45299;-85
2022/04/07 04:18:29;;;;;;;;;6.00;1.75;;;;;14.05;63.76;99390.41;2441245;27;45374;-85
2022/04/07 04:19:39;;;;;;;;;2.50;1.75;;;;;14.04;63.95;99395.81;2444052;28;45539;-88
2022/04/07 04:20:49;;;;;;;;;2.00;1.50;;;;;14.05;63.62;99379.03;2451037;27;45529;-86
2022/04/07 04:22:00;;;;;;;;;3.00;1.00;;;;;14.05;63.88;99379.03;2442538;27;45360;-85
2022/04/07 04:23:10;;;;;;;;;1.75;1.00;;;;;14.05;63.85;99379.84;2444021;28;45449;-85
2022/04/07 04:24:21;;;;;;;;;2.00;1.00;;;;;14.07;64.05;99375.28;2451003;27;45282;-85
2022/04/07 04:25:31;;;;;;;;;2.00;1.75;;;;;14.08;63.73;99384.06;2450983;27;45363;-84
2022/04/07 04:26:42;;;;;;;;;3.00;1.25;;;;;14.06;64.01;99372.75;2443360;27;46474;-84
2022/04/07 04:27:52;;;;;;;;;2.75;1.75;;;;;14.10;63.76;99371.59;2441189;28;45202;-86
2022/04/07 04:29:03;;;;;;;;;4.25;2.00;;;;;14.07;63.73;99396.41;2441114;28;46370;-86
2022/04/07 04:30:13;;;;;;;;;2.00;2.00;;;;;14.08;63.78;99384.06;2443252;28;45172;-88
2022/04/07 04:31:24;;;;;;;;;2.00;2.00;;;;;14.05;63.40;99374.56;2450777;27;46411;-87
2022/04/07 04:32:35;;;;;;;;;3.00;2.00;;;;;14.09;63.88;99369.06;2442328;28;44786;-88
2022/04/07 04:33:46;;;;;;;;;2.00;2.00;;;;;14.07;64.21;99363.91;2444882;28;46200;-89
2022/04/07 04:34:56;;;;;;;;;0.00;0.00;;;;;14.06;64.07;99365.69;2443095;28;44616;-89
2022/04/07 04:36:07;;;;;;;;;2.00;1.50;;;;;14.08;64.08;99368.22;2450397;28;45493;-88
2022/04/07 04:37:18;;;;;;;;;1.50;1.50;;;;;14.12;63.89;99374.16;2442898;28;45361;-89
2022/04/07 04:38:28;;;;;;;;;4.00;3.00;;;;;14.10;64.16;99379.50;2442442;28;47209;-92
2022/04/07 04:39:39;;;;;;;;;2.25;2.25;;;;;14.12;64.32;99364.44;2435652;28;44709;-95
2022/04/07 04:40:49;;;;;;;;;3.00;2.00;;;;;14.11;63.90;99356.59;2445196;28;45952;-94
2022/04/07 04:41:59;;;;;;;;;3.75;2.50;;;;;14.07;63.74;99353.34;2448335;28;45440;-91
2022/04/07 04:43:10;;;;;;;;;3.00;2.00;;;;;14.05;63.92;99353.41;2449916;28;45299;-91
2022/04/07 04:44:20;;;;;;;;;1.75;1.00;;;;;14.07;63.90;99369.19;2452156;28;45220;-92
2022/04/07 04:45:30;;;;;;;;;3.75;1.75;;;;;14.07;63.88;99350.69;2452268;28;46292;-88
2022/04/07 04:46:41;;;;;;;;;3.00;2.50;;;;;14.08;63.81;99360.28;2445741;28;45448;-89
2022/04/07 04:47:52;;;;;;;;;2.00;2.00;;;;;14.11;63.87;99365.38;2438939;28;46264;-88
2022/04/07 04:49:03;;;;;;;;;3.00;2.00;;;;;14.11;64.19;99356.59;2450002;28;45373;-87
2022/04/07 04:50:13;;;;;;;;;3.25;2.00;;;;;14.10;64.22;99357.56;2452541;27;45639;-87
2022/04/07 04:51:23;;;;;;;;;2.00;2.00;;;;;14.09;64.30;99358.50;2451698;27;45278;-88
2022/04/07 04:52:34;;;;;;;;;2.75;2.00;;;;;14.10;64.18;99357.56;2451901;28;46224;-87
2022/04/07 04:53:44;;;;;;;;;2.00;1.25;;;;;14.06;64.26;99346.34;2452723;27;45209;-90
2022/04/07 04:54:54;;;;;;;;;2.00;1.00;;;;;14.04;64.49;99356.19;2452294;27;45308;-88
2022/04/07 04:56:06;;;;;;;;;1.00;1.00;;;;;14.05;64.37;99347.31;2449478;27;45703;-88
2022/04/07 04:57:16;;;;;;;;;1.00;1.00;;;;;14.05;64.51;99352.59;2442674;28;46782;-88
2022/04/07 04:58:26;;;;;;;;;5.75;3.00;;;;;14.04;64.65;99335.91;2442669;28;45322;-87
2022/04/07 04:59:37;;;;;;;;;2.50;1.75;;;;;14.07;64.74;99350.69;2443057;28;46345;-88
2022/04/07 05:00:47;;;;;;;;;4.00;2.00;;;;;14.05;64.83;99342.03;2447494;28;45349;-86
2022/04/07 05:01:58;;;;;;;;;2.00;2.00;;;;;14.06;64.40;99354.28;2450026;28;45420;-87
2022/04/07 05:03:08;;;;;;;;;1.25;1.25;;;;;14.05;64.56;99348.13;2442862;27;45223;-87
2022/04/07 05:04:19;;;;;;;;;3.00;2.25;;;;;14.05;64.42;99337.56;2441982;28;46468;-88
2022/04/07 05:05:29;;;;;;;;;2.75;0.75;;;;;14.06;64.32;99343.69;2443495;28;45362;-82
2022/04/07 05:06:39;;;;;;;;;1.00;1.00;;;;;14.04;64.64;99340.34;2442603;28;45330;-87
2022/04/07 05:07:50;;;;;;;;;1.00;1.00;;;;;14.06;64.68;99343.69;2442785;28;44604;-87
2022/04/07 05:09:00;;;;;;;;;0.75;0.75;;;;;14.07;64.62;99348.03;2442694;28;46464;-87
2022/04/07 05:10:11;;;;;;;;;1.00;1.00;;;;;14.10;64.00;99349.63;2442596;28;45248;-87
2022/04/07 05:11:21;;;;;;;;;2.75;1.50;;;;;14.10;64.76;99328.50;2449651;28;45441;-88
2022/04/07 05:12:32;;;;;;;;;1.75;1.00;;;;;14.07;64.61;99330.38;2450234;27;45199;-88
2022/04/07 05:13:42;;;;;;;;;1.00;1.00;;;;;14.07;64.43;99330.38;2449306;28;45456;-88
2022/04/07 05:14:53;;;;;;;;;1.50;1.50;;;;;14.08;64.92;99331.22;2448801;27;44685;-89
2022/04/07 05:16:04;;;;;;;;;0.75;0.75;;;;;14.10;64.74;99326.66;2452031;27;46122;-90
2022/04/07 05:17:14;;;;;;;;;1.75;1.25;;;;;14.10;64.74;99325.84;2446564;27;45248;-88
2022/04/07 05:18:24;;;;;;;;;1.00;1.00;;;;;14.10;64.38;99323.22;2445564;28;45919;-89
2022/04/07 05:19:38;;;;;;;;;1.75;1.75;;;;;14.10;64.62;99326.66;2446472;28;45971;-89
2022/04/07 05:20:48;;;;;;;;;2.00;1.25;;;;;14.12;64.65;99316.00;2445590;28;46487;-89
2022/04/07 05:21:58;;;;;;;;;1.00;1.00;;;;;14.12;64.65;99316.00;2451383;27;45294;-90
2022/04/07 05:23:09;;;;;;;;;3.00;2.50;;;;;14.12;64.30;99310.72;2451566;28;46172;-89
2022/04/07 05:24:19;;;;;;;;;3.00;2.00;;;;;14.13;64.57;99305.31;2447144;28;45345;-89
2022/04/07 05:25:30;;;;;;;;;3.25;2.00;;;;;14.16;64.52;99322.75;2445997;28;45697;-90
2022/04/07 05:26:40;;;;;;;;;2.50;2.00;;;;;14.12;64.43;99324.78;2450913;28;44896;-89
2022/04/07 05:27:50;;;;;;;;;2.50;2.00;;;;;14.15;64.42;99323.69;2446334;28;45331;-90
2022/04/07 05:29:01;;;;;;;;;1.75;1.75;;;;;14.12;64.47;99316.00;2450466;28;45143;-88
2022/04/07 05:30:13;;;;;;;;;3.00;1.00;;;;;14.12;64.38;99330.06;2448689;28;45262;-87
2022/04/07 05:31:23;;;;;;;;;2.75;2.00;;;;;14.14;63.99;99307.03;2448452;28;45322;-86
2022/04/07 05:32:34;;;;;;;;;1.00;1.00;;;;;14.14;63.90;99312.31;2450265;28;45423;-85
2022/04/07 05:33:44;;;;;;;;;0.50;0.50;;;;;14.13;64.07;99301.84;2450570;27;45429;-84
2022/04/07 05:34:55;;;;;;;;;2.75;1.00;;;;;14.13;64.25;99304.47;2451236;28;45571;-84